sensor_id;sensor_type;location;lat;lon;timestamp;pressure;altitude;pressure_sealevel;temperature;humidity
16664;BME280;8445;51.270;9.434;2022-12-08T00:01:08;98845.31;;;3.11;83.19
16664;BME280;8445;51.270;9.434;2022-12-08T00:03:34;98843.56;;;3.12;82.97
16664;BME280;8445;51.270;9.434;2022-12-08T00:06:01;98843.94;;;3.04;82.43
16664;BME280;8445;51.270;9.434;2022-12-08T00:08:45;98837.56;;;2.94;82.46
16664;BME280;8445;51.270;9.434;2022-12-08T00:11:29;98832.97;;;2.81;82.01
16664;BME280;8445;51.270;9.434;2022-12-08T00:13:55;98829.31;;;2.68;82.91
16664;BME280;8445;51.270;9.434;2022-12-08T00:16:20;98825.50;;;2.58;83.23
16664;BME280;8445;51.270;9.434;2022-12-08T00:18:45;98815.28;;;2.53;82.82
16664;BME280;8445;51.270;9.434;2022-12-08T00:21:11;98825.75;;;2.53;82.40
16664;BME280;8445;51.270;9.434;2022-12-08T00:23:36;98821.66;;;2.47;82.24
16664;BME280;8445;51.270;9.434;2022-12-08T00:26:03;98824.59;;;2.41;82.18
16664;BME280;8445;51.270;9.434;2022-12-08T00:28:30;98823.91;;;2.37;82.08
16664;BME280;8445;51.270;9.434;2022-12-08T00:30:56;98832.66;;;2.36;82.13
16664;BME280;8445;51.270;9.434;2022-12-08T00:33:21;98826.59;;;2.36;81.96
16664;BME280;8445;51.270;9.434;2022-12-08T00:35:46;98819.47;;;2.40;83.20
16664;BME280;8445;51.270;9.434;2022-12-08T00:38:12;98823.50;;;2.45;83.20
16664;BME280;8445;51.270;9.434;2022-12-08T00:40:43;98814.59;;;2.49;82.82
16664;BME280;8445;51.270;9.434;2022-12-08T00:43:08;98815.03;;;2.58;82.70
16664;BME280;8445;51.270;9.434;2022-12-08T00:45:34;98809.59;;;2.62;82.43
16664;BME280;8445;51.270;9.434;2022-12-08T00:47:59;98809.34;;;2.67;82.29
16664;BME280;8445;51.270;9.434;2022-12-08T00:50:25;98810.25;;;2.66;82.58
16664;BME280;8445;51.270;9.434;2022-12-08T00:52:50;98803.25;;;2.66;82.54
16664;BME280;8445;51.270;9.434;2022-12-08T00:55:16;98794.50;;;2.67;82.88
16664;BME280;8445;51.270;9.434;2022-12-08T00:57:41;98787.09;;;2.60;82.90
16664;BME280;8445;51.270;9.434;2022-12-08T01:00:07;98789.84;;;2.57;82.35
16664;BME280;8445;51.270;9.434;2022-12-08T01:02:33;98791.88;;;2.51;82.50
16664;BME280;8445;51.270;9.434;2022-12-08T01:04:59;98793.97;;;2.45;82.75
16664;BME280;8445;51.270;9.434;2022-12-08T01:07:24;98790.44;;;2.46;82.83
16664;BME280;8445;51.270;9.434;2022-12-08T01:09:50;98792.94;;;2.47;83.04
16664;BME280;8445;51.270;9.434;2022-12-08T01:12:17;98798.16;;;2.47;82.69
16664;BME280;8445;51.270;9.434;2022-12-08T01:14:42;98795.41;;;2.50;83.25
16664;BME280;8445;51.270;9.434;2022-12-08T01:17:08;98805.06;;;2.48;83.36
16664;BME280;8445;51.270;9.434;2022-12-08T01:19:33;98801.63;;;2.48;82.48
16664;BME280;8445;51.270;9.434;2022-12-08T01:21:58;98802.63;;;2.45;82.87
16664;BME280;8445;51.270;9.434;2022-12-08T01:24:24;98798.56;;;2.40;82.54
16664;BME280;8445;51.270;9.434;2022-12-08T01:26:49;98808.25;;;2.37;82.33
16664;BME280;8445;51.270;9.434;2022-12-08T01:29:15;98803.09;;;2.36;82.67
16664;BME280;8445;51.270;9.434;2022-12-08T01:31:40;98808.56;;;2.31;82.52
16664;BME280;8445;51.270;9.434;2022-12-08T01:34:06;98819.09;;;2.30;82.19
16664;BME280;8445;51.270;9.434;2022-12-08T01:36:33;98807.13;;;2.26;82.49
16664;BME280;8445;51.270;9.434;2022-12-08T01:39:02;98808.19;;;2.21;82.28
16664;BME280;8445;51.270;9.434;2022-12-08T01:41:30;98817.16;;;2.16;82.90
16664;BME280;8445;51.270;9.434;2022-12-08T01:43:57;98806.81;;;2.14;82.00
16664;BME280;8445;51.270;9.434;2022-12-08T01:46:24;98802.81;;;2.07;81.96
16664;BME280;8445;51.270;9.434;2022-12-08T01:48:53;98802.22;;;2.02;82.35
16664;BME280;8445;51.270;9.434;2022-12-08T01:51:21;98803.28;;;1.98;81.90
16664;BME280;8445;51.270;9.434;2022-12-08T01:53:47;98802.81;;;1.89;82.07
16664;BME280;8445;51.270;9.434;2022-12-08T01:56:27;98793.84;;;1.77;82.53
16664;BME280;8445;51.270;9.434;2022-12-08T01:58:56;98798.53;;;1.71;82.58
16664;BME280;8445;51.270;9.434;2022-12-08T02:01:22;98795.44;;;1.62;82.09
16664;BME280;8445;51.270;9.434;2022-12-08T02:04:02;98805.31;;;1.56;82.92
16664;BME280;8445;51.270;9.434;2022-12-08T02:06:31;98797.19;;;1.44;82.28
16664;BME280;8445;51.270;9.434;2022-12-08T02:09:00;98794.00;;;1.38;82.01
16664;BME280;8445;51.270;9.434;2022-12-08T02:11:26;98789.56;;;1.40;82.67
16664;BME280;8445;51.270;9.434;2022-12-08T02:13:53;98785.66;;;1.48;82.54
16664;BME280;8445;51.270;9.434;2022-12-08T02:16:43;98785.00;;;1.62;83.18
16664;BME280;8445;51.270;9.434;2022-12-08T02:24:45;98768.03;;;2.06;83.73
16664;BME280;8445;51.270;9.434;2022-12-08T02:29:58;98764.59;;;2.24;83.80
16664;BME280;8445;51.270;9.434;2022-12-08T02:33:01;98765.06;;;2.32;84.53
16664;BME280;8445;51.270;9.434;2022-12-08T02:40:38;98757.91;;;2.51;83.53
16664;BME280;8445;51.270;9.434;2022-12-08T02:43:08;98761.22;;;2.55;83.47
16664;BME280;8445;51.270;9.434;2022-12-08T02:45:49;98757.59;;;2.58;84.06
16664;BME280;8445;51.270;9.434;2022-12-08T02:48:16;98754.81;;;2.61;83.44
16664;BME280;8445;51.270;9.434;2022-12-08T02:50:42;98744.47;;;2.59;83.26
16664;BME280;8445;51.270;9.434;2022-12-08T02:53:08;98747.00;;;2.61;83.27
16664;BME280;8445;51.270;9.434;2022-12-08T02:55:55;98746.81;;;2.64;84.36
16664;BME280;8445;51.270;9.434;2022-12-08T02:58:45;98743.47;;;2.62;83.89
16664;BME280;8445;51.270;9.434;2022-12-08T03:04:56;98740.56;;;2.50;83.42
16664;BME280;8445;51.270;9.434;2022-12-08T03:07:34;98737.19;;;2.48;83.43
16664;BME280;8445;51.270;9.434;2022-12-08T03:10:09;98727.06;;;2.42;83.48
16664;BME280;8445;51.270;9.434;2022-12-08T03:15:13;98724.22;;;2.31;83.17
16664;BME280;8445;51.270;9.434;2022-12-08T03:17:42;98718.38;;;2.26;82.51
16664;BME280;8445;51.270;9.434;2022-12-08T03:20:13;98719.31;;;2.25;83.06
16664;BME280;8445;51.270;9.434;2022-12-08T03:22:40;98714.09;;;2.25;83.06
16664;BME280;8445;51.270;9.434;2022-12-08T03:25:09;98712.31;;;2.25;83.22
16664;BME280;8445;51.270;9.434;2022-12-08T03:27:36;98711.22;;;2.29;83.14
16664;BME280;8445;51.270;9.434;2022-12-08T03:30:02;98701.28;;;2.36;83.42
16664;BME280;8445;51.270;9.434;2022-12-08T03:33:00;98700.97;;;2.42;83.85
16664;BME280;8445;51.270;9.434;2022-12-08T03:35:33;98696.78;;;2.40;83.14
16664;BME280;8445;51.270;9.434;2022-12-08T03:38:08;98688.84;;;2.41;82.95
16664;BME280;8445;51.270;9.434;2022-12-08T03:40:35;98701.84;;;2.43;83.00
16664;BME280;8445;51.270;9.434;2022-12-08T03:43:01;98687.09;;;2.42;82.32
16664;BME280;8445;51.270;9.434;2022-12-08T03:45:26;98685.63;;;2.36;83.00
16664;BME280;8445;51.270;9.434;2022-12-08T03:47:52;98686.97;;;2.27;82.91
16664;BME280;8445;51.270;9.434;2022-12-08T03:50:17;98687.22;;;2.22;82.28
16664;BME280;8445;51.270;9.434;2022-12-08T03:52:43;98684.63;;;2.22;82.97
16664;BME280;8445;51.270;9.434;2022-12-08T03:55:09;98690.44;;;2.28;83.05
16664;BME280;8445;51.270;9.434;2022-12-08T03:57:37;98683.13;;;2.34;83.18
16664;BME280;8445;51.270;9.434;2022-12-08T04:00:07;98676.72;;;2.40;83.50
16664;BME280;8445;51.270;9.434;2022-12-08T04:02:32;98685.09;;;2.47;83.83
16664;BME280;8445;51.270;9.434;2022-12-08T04:04:58;98680.53;;;2.50;83.52
16664;BME280;8445;51.270;9.434;2022-12-08T04:07:23;98674.22;;;2.55;84.27
16664;BME280;8445;51.270;9.434;2022-12-08T04:09:51;98663.59;;;2.58;84.28
16664;BME280;8445;51.270;9.434;2022-12-08T04:12:17;98659.06;;;2.61;83.89
16664;BME280;8445;51.270;9.434;2022-12-08T04:14:42;98654.59;;;2.63;84.12
16664;BME280;8445;51.270;9.434;2022-12-08T04:17:07;98662.19;;;2.68;84.20
16664;BME280;8445;51.270;9.434;2022-12-08T04:19:33;98645.41;;;2.72;84.41
16664;BME280;8445;51.270;9.434;2022-12-08T04:21:58;98651.22;;;2.77;84.33
16664;BME280;8445;51.270;9.434;2022-12-08T04:24:24;98652.75;;;2.81;84.86
16664;BME280;8445;51.270;9.434;2022-12-08T04:26:49;98649.97;;;2.85;84.38
16664;BME280;8445;51.270;9.434;2022-12-08T04:29:15;98646.25;;;2.89;84.13
16664;BME280;8445;51.270;9.434;2022-12-08T04:31:40;98648.88;;;2.89;83.90
16664;BME280;8445;51.270;9.434;2022-12-08T04:34:06;98647.94;;;2.90;84.29
16664;BME280;8445;51.270;9.434;2022-12-08T04:36:32;98644.41;;;2.91;84.15
16664;BME280;8445;51.270;9.434;2022-12-08T04:38:57;98642.53;;;2.93;84.26
16664;BME280;8445;51.270;9.434;2022-12-08T04:41:23;98641.50;;;2.95;83.90
16664;BME280;8445;51.270;9.434;2022-12-08T04:43:48;98637.31;;;2.93;83.42
16664;BME280;8445;51.270;9.434;2022-12-08T04:46:13;98634.78;;;2.91;83.70
16664;BME280;8445;51.270;9.434;2022-12-08T04:48:39;98639.00;;;2.94;83.78
16664;BME280;8445;51.270;9.434;2022-12-08T04:51:06;98632.75;;;2.96;83.47
16664;BME280;8445;51.270;9.434;2022-12-08T04:53:32;98634.31;;;2.99;84.03
16664;BME280;8445;51.270;9.434;2022-12-08T04:55:57;98641.22;;;3.00;83.98
16664;BME280;8445;51.270;9.434;2022-12-08T04:58:23;98634.16;;;3.02;83.83
16664;BME280;8445;51.270;9.434;2022-12-08T05:00:48;98630.72;;;3.02;84.08
16664;BME280;8445;51.270;9.434;2022-12-08T05:03:14;98629.59;;;3.06;84.36
16664;BME280;8445;51.270;9.434;2022-12-08T05:05:41;98632.22;;;3.06;83.76
16664;BME280;8445;51.270;9.434;2022-12-08T05:08:08;98642.91;;;3.01;83.98
16664;BME280;8445;51.270;9.434;2022-12-08T05:10:34;98637.03;;;2.97;83.81
16664;BME280;8445;51.270;9.434;2022-12-08T05:12:59;98624.03;;;2.96;84.29
16664;BME280;8445;51.270;9.434;2022-12-08T05:15:25;98625.84;;;2.95;84.00
16664;BME280;8445;51.270;9.434;2022-12-08T05:17:50;98623.50;;;2.91;83.74
16664;BME280;8445;51.270;9.434;2022-12-08T05:20:16;98627.19;;;2.87;84.00
16664;BME280;8445;51.270;9.434;2022-12-08T05:22:41;98629.06;;;2.85;84.05
16664;BME280;8445;51.270;9.434;2022-12-08T05:25:07;98624.84;;;2.82;83.63
16664;BME280;8445;51.270;9.434;2022-12-08T05:27:33;98627.53;;;2.80;83.91
16664;BME280;8445;51.270;9.434;2022-12-08T05:29:59;98616.25;;;2.80;84.22
16664;BME280;8445;51.270;9.434;2022-12-08T05:32:24;98612.97;;;2.76;84.02
16664;BME280;8445;51.270;9.434;2022-12-08T05:34:50;98608.69;;;2.75;84.15
16664;BME280;8445;51.270;9.434;2022-12-08T05:37:15;98611.28;;;2.75;84.17
16664;BME280;8445;51.270;9.434;2022-12-08T05:39:41;98618.03;;;2.79;85.15
16664;BME280;8445;51.270;9.434;2022-12-08T05:42:06;98614.38;;;2.82;84.06
16664;BME280;8445;51.270;9.434;2022-12-08T05:44:32;98601.78;;;2.74;83.72
16664;BME280;8445;51.270;9.434;2022-12-08T05:46:57;98616.84;;;2.69;84.54
16664;BME280;8445;51.270;9.434;2022-12-08T05:49:23;98607.50;;;2.65;83.85
16664;BME280;8445;51.270;9.434;2022-12-08T05:51:48;98602.56;;;2.60;84.10
16664;BME280;8445;51.270;9.434;2022-12-08T05:54:14;98604.66;;;2.54;83.48
16664;BME280;8445;51.270;9.434;2022-12-08T05:56:39;98597.25;;;2.46;83.60
16664;BME280;8445;51.270;9.434;2022-12-08T05:59:05;98592.94;;;2.45;84.32
16664;BME280;8445;51.270;9.434;2022-12-08T06:01:31;98593.03;;;2.43;83.72
16664;BME280;8445;51.270;9.434;2022-12-08T06:03:58;98592.84;;;2.46;84.37
16664;BME280;8445;51.270;9.434;2022-12-08T06:06:24;98584.03;;;2.49;84.00
16664;BME280;8445;51.270;9.434;2022-12-08T06:08:50;98586.97;;;2.59;84.75
16664;BME280;8445;51.270;9.434;2022-12-08T06:11:21;98589.97;;;2.67;84.71
16664;BME280;8445;51.270;9.434;2022-12-08T06:13:47;98587.78;;;2.75;84.77
16664;BME280;8445;51.270;9.434;2022-12-08T06:16:13;98585.47;;;2.85;84.69
16664;BME280;8445;51.270;9.434;2022-12-08T06:18:38;98585.06;;;2.93;84.76
16664;BME280;8445;51.270;9.434;2022-12-08T06:21:08;98587.41;;;2.97;85.41
16664;BME280;8445;51.270;9.434;2022-12-08T06:23:34;98580.97;;;3.03;84.84
16664;BME280;8445;51.270;9.434;2022-12-08T06:26:02;98581.66;;;3.07;84.69
16664;BME280;8445;51.270;9.434;2022-12-08T06:28:30;98578.94;;;3.08;84.18
16664;BME280;8445;51.270;9.434;2022-12-08T06:30:56;98589.38;;;3.08;84.25
16664;BME280;8445;51.270;9.434;2022-12-08T06:33:21;98589.22;;;3.11;84.65
16664;BME280;8445;51.270;9.434;2022-12-08T06:35:47;98586.59;;;3.11;84.60
16664;BME280;8445;51.270;9.434;2022-12-08T06:38:12;98590.81;;;3.14;84.65
16664;BME280;8445;51.270;9.434;2022-12-08T06:40:37;98592.22;;;3.20;85.16
16664;BME280;8445;51.270;9.434;2022-12-08T06:43:03;98584.94;;;3.25;84.60
16664;BME280;8445;51.270;9.434;2022-12-08T06:45:28;98584.78;;;3.28;84.81
16664;BME280;8445;51.270;9.434;2022-12-08T06:47:54;98575.81;;;3.32;84.57
16664;BME280;8445;51.270;9.434;2022-12-08T06:50:19;98589.47;;;3.37;84.93
16664;BME280;8445;51.270;9.434;2022-12-08T06:52:45;98577.97;;;3.40;84.56
16664;BME280;8445;51.270;9.434;2022-12-08T06:55:10;98582.84;;;3.46;84.51
16664;BME280;8445;51.270;9.434;2022-12-08T06:57:36;98581.72;;;3.50;84.64
16664;BME280;8445;51.270;9.434;2022-12-08T07:00:03;98575.50;;;3.53;84.99
16664;BME280;8445;51.270;9.434;2022-12-08T07:02:30;98577.88;;;3.56;84.24
16664;BME280;8445;51.270;9.434;2022-12-08T07:04:55;98582.19;;;3.57;84.32
16664;BME280;8445;51.270;9.434;2022-12-08T07:07:21;98571.72;;;3.57;84.40
16664;BME280;8445;51.270;9.434;2022-12-08T07:09:46;98584.97;;;3.54;83.82
16664;BME280;8445;51.270;9.434;2022-12-08T07:12:12;98571.56;;;3.46;84.57
16664;BME280;8445;51.270;9.434;2022-12-08T07:14:37;98580.50;;;3.41;84.30
16664;BME280;8445;51.270;9.434;2022-12-08T07:17:03;98573.03;;;3.35;84.59
16664;BME280;8445;51.270;9.434;2022-12-08T07:19:28;98580.94;;;3.34;84.65
16664;BME280;8445;51.270;9.434;2022-12-08T07:21:53;98576.94;;;3.28;84.23
16664;BME280;8445;51.270;9.434;2022-12-08T07:24:19;98580.47;;;3.27;84.96
16664;BME280;8445;51.270;9.434;2022-12-08T07:26:44;98581.41;;;3.26;84.58
16664;BME280;8445;51.270;9.434;2022-12-08T07:29:10;98577.00;;;3.26;84.66
16664;BME280;8445;51.270;9.434;2022-12-08T07:31:35;98579.53;;;3.28;84.14
16664;BME280;8445;51.270;9.434;2022-12-08T07:34:01;98578.44;;;3.32;84.39
16664;BME280;8445;51.270;9.434;2022-12-08T07:36:26;98581.06;;;3.32;84.40
16664;BME280;8445;51.270;9.434;2022-12-08T07:38:52;98564.50;;;3.32;84.35
16664;BME280;8445;51.270;9.434;2022-12-08T07:41:20;98568.91;;;3.31;84.34
16664;BME280;8445;51.270;9.434;2022-12-08T07:43:46;98565.38;;;3.32;84.45
16664;BME280;8445;51.270;9.434;2022-12-08T07:46:14;98565.81;;;3.39;84.64
16664;BME280;8445;51.270;9.434;2022-12-08T07:48:40;98568.94;;;3.46;84.57
16664;BME280;8445;51.270;9.434;2022-12-08T07:51:06;98567.81;;;3.50;84.73
16664;BME280;8445;51.270;9.434;2022-12-08T07:53:32;98570.78;;;3.58;84.81
16664;BME280;8445;51.270;9.434;2022-12-08T07:55:57;98569.59;;;3.64;84.04
16664;BME280;8445;51.270;9.434;2022-12-08T07:58:23;98566.50;;;3.71;84.61
16664;BME280;8445;51.270;9.434;2022-12-08T08:00:50;98565.19;;;3.79;84.74
16664;BME280;8445;51.270;9.434;2022-12-08T08:03:16;98570.63;;;3.90;84.98
16664;BME280;8445;51.270;9.434;2022-12-08T08:05:43;98572.75;;;3.98;84.95
16664;BME280;8445;51.270;9.434;2022-12-08T08:08:09;98574.91;;;4.06;84.53
16664;BME280;8445;51.270;9.434;2022-12-08T08:10:35;98559.75;;;4.11;84.72
16664;BME280;8445;51.270;9.434;2022-12-08T08:13:01;98563.66;;;4.18;84.75
16664;BME280;8445;51.270;9.434;2022-12-08T08:15:27;98552.81;;;4.24;84.24
16664;BME280;8445;51.270;9.434;2022-12-08T08:17:53;98559.44;;;4.30;84.94
16664;BME280;8445;51.270;9.434;2022-12-08T08:20:19;98558.31;;;4.34;84.80
16664;BME280;8445;51.270;9.434;2022-12-08T08:22:47;98570.91;;;4.42;84.95
16664;BME280;8445;51.270;9.434;2022-12-08T08:25:19;98563.41;;;4.50;84.71
16664;BME280;8445;51.270;9.434;2022-12-08T08:27:52;98570.75;;;4.58;84.58
16664;BME280;8445;51.270;9.434;2022-12-08T08:30:22;98564.50;;;4.60;84.31
16664;BME280;8445;51.270;9.434;2022-12-08T08:32:51;98565.78;;;4.68;84.51
16664;BME280;8445;51.270;9.434;2022-12-08T08:35:16;98566.84;;;4.78;84.80
16664;BME280;8445;51.270;9.434;2022-12-08T08:37:42;98564.56;;;4.86;83.75
16664;BME280;8445;51.270;9.434;2022-12-08T08:40:08;98560.91;;;4.89;83.90
16664;BME280;8445;51.270;9.434;2022-12-08T08:42:33;98568.88;;;4.87;83.67
16664;BME280;8445;51.270;9.434;2022-12-08T08:44:59;98563.63;;;4.87;83.60
16664;BME280;8445;51.270;9.434;2022-12-08T08:47:25;98567.94;;;4.88;84.18
16664;BME280;8445;51.270;9.434;2022-12-08T08:49:51;98570.34;;;4.92;83.89
16664;BME280;8445;51.270;9.434;2022-12-08T08:52:18;98569.41;;;4.93;83.94
16664;BME280;8445;51.270;9.434;2022-12-08T08:54:44;98574.66;;;4.93;83.85
16664;BME280;8445;51.270;9.434;2022-12-08T08:57:10;98565.97;;;4.92;83.68
16664;BME280;8445;51.270;9.434;2022-12-08T08:59:38;98573.72;;;4.94;84.00
16664;BME280;8445;51.270;9.434;2022-12-08T09:02:04;98567.44;;;4.96;84.07
16664;BME280;8445;51.270;9.434;2022-12-08T09:04:29;98575.09;;;4.99;84.04
16664;BME280;8445;51.270;9.434;2022-12-08T09:06:55;98571.44;;;5.02;84.10
16664;BME280;8445;51.270;9.434;2022-12-08T09:09:20;98563.34;;;5.05;83.90
16664;BME280;8445;51.270;9.434;2022-12-08T09:11:45;98564.38;;;5.02;84.07
16664;BME280;8445;51.270;9.434;2022-12-08T09:14:12;98569.53;;;5.04;83.71
16664;BME280;8445;51.270;9.434;2022-12-08T09:16:39;98574.88;;;5.02;84.04
16664;BME280;8445;51.270;9.434;2022-12-08T09:19:06;98570.28;;;5.06;84.25
16664;BME280;8445;51.270;9.434;2022-12-08T09:21:33;98567.66;;;5.06;84.24
16664;BME280;8445;51.270;9.434;2022-12-08T09:24:04;98562.50;;;5.04;84.20
16664;BME280;8445;51.270;9.434;2022-12-08T09:26:30;98568.59;;;5.05;84.19
16664;BME280;8445;51.270;9.434;2022-12-08T09:28:56;98564.31;;;5.04;83.90
16664;BME280;8445;51.270;9.434;2022-12-08T09:31:23;98561.16;;;5.12;84.70
16664;BME280;8445;51.270;9.434;2022-12-08T09:33:49;98564.03;;;5.22;85.20
16664;BME280;8445;51.270;9.434;2022-12-08T09:36:18;98553.75;;;5.31;85.28
16664;BME280;8445;51.270;9.434;2022-12-08T09:38:43;98560.25;;;5.39;85.24
16664;BME280;8445;51.270;9.434;2022-12-08T09:41:16;98550.19;;;5.45;85.37
16664;BME280;8445;51.270;9.434;2022-12-08T09:46:18;98553.75;;;5.70;85.53
16664;BME280;8445;51.270;9.434;2022-12-08T09:48:51;98551.09;;;5.83;86.21
16664;BME280;8445;51.270;9.434;2022-12-08T09:51:22;98550.34;;;5.94;85.79
16664;BME280;8445;51.270;9.434;2022-12-08T09:56:53;98553.69;;;6.22;85.39
16664;BME280;8445;51.270;9.434;2022-12-08T09:59:24;98547.16;;;6.28;84.76
16664;BME280;8445;51.270;9.434;2022-12-08T10:01:51;98543.69;;;6.27;84.46
16664;BME280;8445;51.270;9.434;2022-12-08T10:04:34;98551.06;;;6.22;81.83
16664;BME280;8445;51.270;9.434;2022-12-08T10:07:20;98541.28;;;6.24;84.13
16664;BME280;8445;51.270;9.434;2022-12-08T10:10:02;98547.03;;;6.29;84.06
16664;BME280;8445;51.270;9.434;2022-12-08T10:12:45;98541.66;;;6.31;82.04
16664;BME280;8445;51.270;9.434;2022-12-08T10:18:22;98533.63;;;6.45;85.13
16664;BME280;8445;51.270;9.434;2022-12-08T10:20:50;98530.41;;;6.42;85.50
16664;BME280;8445;51.270;9.434;2022-12-08T10:23:28;98534.31;;;6.36;82.51
16664;BME280;8445;51.270;9.434;2022-12-08T10:26:03;98527.59;;;6.32;83.40
16664;BME280;8445;51.270;9.434;2022-12-08T10:28:31;98525.81;;;6.32;84.51
16664;BME280;8445;51.270;9.434;2022-12-08T10:31:00;98517.59;;;6.37;84.45
16664;BME280;8445;51.270;9.434;2022-12-08T10:33:56;98519.84;;;6.30;81.01
16664;BME280;8445;51.270;9.434;2022-12-08T10:36:43;98517.94;;;6.32;83.13
16664;BME280;8445;51.270;9.434;2022-12-08T10:39:40;98520.34;;;6.35;79.33
16664;BME280;8445;51.270;9.434;2022-12-08T10:47:19;98511.88;;;6.67;84.34
16664;BME280;8445;51.270;9.434;2022-12-08T10:49:45;98512.03;;;6.77;85.37
16664;BME280;8445;51.270;9.434;2022-12-08T10:52:23;98508.84;;;6.85;82.25
16664;BME280;8445;51.270;9.434;2022-12-08T10:54:53;98504.81;;;6.92;84.58
16664;BME280;8445;51.270;9.434;2022-12-08T10:57:20;98496.56;;;6.97;83.68
16664;BME280;8445;51.270;9.434;2022-12-08T10:59:46;98501.72;;;6.99;84.83
16664;BME280;8445;51.270;9.434;2022-12-08T11:02:19;98501.59;;;7.00;83.61
16664;BME280;8445;51.270;9.434;2022-12-08T11:04:55;98501.38;;;7.03;83.90
16664;BME280;8445;51.270;9.434;2022-12-08T11:07:23;98505.78;;;7.14;84.47
16664;BME280;8445;51.270;9.434;2022-12-08T11:09:54;98500.78;;;7.22;84.68
16664;BME280;8445;51.270;9.434;2022-12-08T11:12:25;98499.97;;;7.22;81.61
16664;BME280;8445;51.270;9.434;2022-12-08T11:14:58;98496.38;;;7.23;83.52
16664;BME280;8445;51.270;9.434;2022-12-08T11:17:34;98492.22;;;7.43;84.52
16664;BME280;8445;51.270;9.434;2022-12-08T11:20:19;98491.97;;;7.46;79.34
16664;BME280;8445;51.270;9.434;2022-12-08T11:22:53;98486.00;;;7.55;84.48
16664;BME280;8445;51.270;9.434;2022-12-08T11:25:24;98491.72;;;7.72;84.49
16664;BME280;8445;51.270;9.434;2022-12-08T11:27:52;98492.34;;;7.76;83.38
16664;BME280;8445;51.270;9.434;2022-12-08T11:30:33;98486.22;;;7.75;81.77
16664;BME280;8445;51.270;9.434;2022-12-08T11:33:05;98484.53;;;7.74;81.70
16664;BME280;8445;51.270;9.434;2022-12-08T11:35:40;98486.69;;;7.69;83.04
16664;BME280;8445;51.270;9.434;2022-12-08T11:38:14;98484.34;;;7.54;80.56
16664;BME280;8445;51.270;9.434;2022-12-08T11:40:42;98497.97;;;7.48;81.90
16664;BME280;8445;51.270;9.434;2022-12-08T11:45:40;98488.63;;;7.44;81.35
16664;BME280;8445;51.270;9.434;2022-12-08T11:48:18;98483.00;;;7.37;80.25
16664;BME280;8445;51.270;9.434;2022-12-08T11:50:52;98490.03;;;7.25;79.76
16664;BME280;8445;51.270;9.434;2022-12-08T11:53:31;98491.94;;;7.23;80.38
16664;BME280;8445;51.270;9.434;2022-12-08T11:56:05;98484.53;;;7.29;81.26
16664;BME280;8445;51.270;9.434;2022-12-08T11:58:41;98483.72;;;7.39;82.33
16664;BME280;8445;51.270;9.434;2022-12-08T12:01:19;98484.34;;;7.54;80.39
16664;BME280;8445;51.270;9.434;2022-12-08T12:06:30;98486.50;;;7.61;79.06
16664;BME280;8445;51.270;9.434;2022-12-08T12:20:18;98484.09;;;7.46;77.85
16664;BME280;8445;51.270;9.434;2022-12-08T12:22:48;98483.84;;;7.38;80.74
16664;BME280;8445;51.270;9.434;2022-12-08T12:25:20;98473.78;;;7.32;79.72
16664;BME280;8445;51.270;9.434;2022-12-08T12:27:48;98481.31;;;7.36;80.71
16664;BME280;8445;51.270;9.434;2022-12-08T12:30:26;98472.34;;;7.27;79.17
16664;BME280;8445;51.270;9.434;2022-12-08T12:33:00;98478.56;;;7.26;79.65
16664;BME280;8445;51.270;9.434;2022-12-08T12:35:36;98474.16;;;7.27;80.94
16664;BME280;8445;51.270;9.434;2022-12-08T12:38:12;98474.25;;;7.25;80.46
16664;BME280;8445;51.270;9.434;2022-12-08T12:41:02;98485.47;;;7.16;80.03
16664;BME280;8445;51.270;9.434;2022-12-08T12:43:34;98480.56;;;7.00;77.80
16664;BME280;8445;51.270;9.434;2022-12-08T12:48:50;98478.84;;;6.76;78.54
16664;BME280;8445;51.270;9.434;2022-12-08T12:54:24;98475.84;;;6.81;78.32
16664;BME280;8445;51.270;9.434;2022-12-08T12:56:55;98470.38;;;6.84;80.15
16664;BME280;8445;51.270;9.434;2022-12-08T13:02:26;98481.47;;;6.88;78.95
16664;BME280;8445;51.270;9.434;2022-12-08T13:04:57;98470.13;;;6.87;78.72
16664;BME280;8445;51.270;9.434;2022-12-08T13:07:39;98480.41;;;6.90;78.01
16664;BME280;8445;51.270;9.434;2022-12-08T13:12:38;98470.81;;;6.78;77.42
16664;BME280;8445;51.270;9.434;2022-12-08T13:15:04;98478.66;;;6.66;76.33
16664;BME280;8445;51.270;9.434;2022-12-08T13:17:33;98475.44;;;6.63;77.28
16664;BME280;8445;51.270;9.434;2022-12-08T13:20:03;98479.13;;;6.60;77.85
16664;BME280;8445;51.270;9.434;2022-12-08T13:23:10;98463.56;;;6.57;78.02
16664;BME280;8445;51.270;9.434;2022-12-08T13:30:51;98473.59;;;6.52;76.75
16664;BME280;8445;51.270;9.434;2022-12-08T13:33:27;98469.50;;;6.48;78.31
16664;BME280;8445;51.270;9.434;2022-12-08T13:38:37;98464.91;;;6.27;77.61
16664;BME280;8445;51.270;9.434;2022-12-08T13:41:10;98456.59;;;6.20;77.61
16664;BME280;8445;51.270;9.434;2022-12-08T13:46:14;98461.09;;;6.07;77.25
16664;BME280;8445;51.270;9.434;2022-12-08T13:48:46;98458.78;;;6.02;78.19
16664;BME280;8445;51.270;9.434;2022-12-08T13:51:16;98462.56;;;5.98;77.48
16664;BME280;8445;51.270;9.434;2022-12-08T13:53:58;98463.94;;;5.91;75.89
16664;BME280;8445;51.270;9.434;2022-12-08T13:56:26;98457.94;;;5.89;77.74
16664;BME280;8445;51.270;9.434;2022-12-08T13:59:09;98469.53;;;5.86;78.37
16664;BME280;8445;51.270;9.434;2022-12-08T14:01:48;98462.72;;;5.84;78.33
16664;BME280;8445;51.270;9.434;2022-12-08T14:04:19;98463.75;;;5.81;77.67
16664;BME280;8445;51.270;9.434;2022-12-08T14:06:51;98472.19;;;5.73;77.20
16664;BME280;8445;51.270;9.434;2022-12-08T14:09:20;98472.63;;;5.67;77.24
16664;BME280;8445;51.270;9.434;2022-12-08T14:11:52;98469.69;;;5.59;77.37
16664;BME280;8445;51.270;9.434;2022-12-08T14:14:27;98480.41;;;5.56;77.56
16664;BME280;8445;51.270;9.434;2022-12-08T14:16:56;98483.16;;;5.54;77.80
16664;BME280;8445;51.270;9.434;2022-12-08T14:19:23;98483.16;;;5.54;77.71
16664;BME280;8445;51.270;9.434;2022-12-08T14:21:59;98472.22;;;5.47;77.60
16664;BME280;8445;51.270;9.434;2022-12-08T14:24:26;98483.47;;;5.37;77.92
16664;BME280;8445;51.270;9.434;2022-12-08T14:26:58;98480.94;;;5.35;78.37
16664;BME280;8445;51.270;9.434;2022-12-08T14:37:25;98478.63;;;5.30;78.51
16664;BME280;8445;51.270;9.434;2022-12-08T14:39:51;98484.94;;;5.28;78.21
16664;BME280;8445;51.270;9.434;2022-12-08T14:42:24;98476.34;;;5.26;78.27
16664;BME280;8445;51.270;9.434;2022-12-08T14:45:07;98489.47;;;5.26;78.29
16664;BME280;8445;51.270;9.434;2022-12-08T14:47:36;98489.88;;;5.19;78.40
16664;BME280;8445;51.270;9.434;2022-12-08T14:50:04;98491.03;;;5.15;78.30
16664;BME280;8445;51.270;9.434;2022-12-08T14:52:48;98491.22;;;5.12;78.92